TimePST,TemperatureF,Dew PointF,Humidity,Sea Level PressureIn,VisibilityMPH,Wind Direction,Wind SpeedMPH,Gust SpeedMPH,PrecipitationIn,Events,Conditions,WindDirDegrees,DateUTC
12:53 AM,39.9,36.0,86,30.23,10.0,Calm,Calm,-,N/A,,Mostly Cloudy,0,2012-12-08 08:53:00
1:53 AM,41.0,37.0,86,30.23,10.0,Calm,Calm,-,N/A,,Overcast,0,2012-12-08 09:53:00
3:53 AM,37.0,35.1,93,30.23,10.0,Calm,Calm,-,N/A,,Overcast,0,2012-12-08 11:53:00
4:53 AM,37.0,35.1,93,30.23,10.0,Calm,Calm,-,N/A,,Clear,0,2012-12-08 12:53:00
5:53 AM,36.0,34.0,93,30.24,10.0,Calm,Calm,-,N/A,,Mostly Cloudy,0,2012-12-08 13:53:00
6:53 AM,36.0,34.0,93,30.25,10.0,Calm,Calm,-,N/A,,Overcast,0,2012-12-08 14:53:00
7:53 AM,37.9,36.0,93,30.26,10.0,Calm,Calm,-,N/A,,Overcast,0,2012-12-08 15:53:00
8:53 AM,41.0,37.9,89,30.27,10.0,Calm,Calm,-,N/A,,Mostly Cloudy,0,2012-12-08 16:53:00
9:53 AM,43.0,39.0,86,30.29,10.0,Calm,Calm,-,N/A,,Overcast,0,2012-12-08 17:53:00
10:53 AM,44.1,39.0,82,30.30,10.0,Calm,Calm,-,N/A,,Overcast,0,2012-12-08 18:53:00
11:53 AM,45.0,39.0,80,30.29,10.0,Calm,Calm,-,N/A,,Overcast,0,2012-12-08 19:53:00
12:45 PM,46.4,37.4,71,30.28,10.0,Variable,3.5,-,N/A,,Overcast,0,2012-12-08 20:45:00
12:53 PM,46.0,37.9,73,30.28,10.0,Calm,Calm,-,N/A,,Overcast,0,2012-12-08 20:53:00
1:00 PM,46.4,37.4,71,30.27,10.0,SW,3.5,-,N/A,,Overcast,230,2012-12-08 21:00:00
1:53 PM,46.0,37.0,71,30.28,10.0,WSW,4.6,-,N/A,,Overcast,240,2012-12-08 21:53:00
2:53 PM,46.0,37.9,73,30.27,10.0,Calm,Calm,-,0.01,Rain,Light Rain,0,2012-12-08 22:53:00
3:38 PM,44.6,39.2,81,30.29,10.0,North,4.6,-,0.00,Rain,Light Rain,360,2012-12-08 23:38:00
3:53 PM,43.0,39.0,86,30.29,2.5,North,6.9,-,0.03,Rain,Rain,350,2012-12-08 23:53:00
4:07 PM,42.8,37.4,81,30.29,6.0,North,5.8,-,0.01,Rain,Light Rain,360,2012-12-09 00:07:00
4:24 PM,42.8,37.4,81,30.30,10.0,North,4.6,-,0.01,Rain,Light Rain,360,2012-12-09 00:24:00
4:53 PM,43.0,37.9,82,30.30,10.0,Calm,Calm,-,0.01,Rain,Light Rain,0,2012-12-09 00:53:00
5:03 PM,42.8,37.4,81,30.30,10.0,Calm,Calm,-,0.01,Rain,Light Rain,0,2012-12-09 01:03:00
5:53 PM,42.1,37.9,85,30.31,10.0,Calm,Calm,-,0.02,Rain,Light Rain,0,2012-12-09 01:53:00
6:09 PM,42.8,37.4,81,30.31,10.0,Calm,Calm,-,0.00,Rain,Light Rain,0,2012-12-09 02:09:00
6:53 PM,41.0,39.0,93,30.32,10.0,Calm,Calm,-,0.00,,Overcast,0,2012-12-09 02:53:00
7:53 PM,42.1,39.0,89,30.34,10.0,Calm,Calm,-,N/A,,Overcast,0,2012-12-09 03:53:00
8:53 PM,42.1,39.0,89,30.35,10.0,Calm,Calm,-,0.01,Rain,Light Rain,0,2012-12-09 04:53:00
9:53 PM,41.0,39.9,96,30.36,9.0,Calm,Calm,-,0.01,Rain,Light Rain,0,2012-12-09 05:53:00
9:58 PM,42.8,39.2,87,30.36,9.0,Calm,Calm,-,0.00,Rain,Light Rain,0,2012-12-09 05:58:00
10:14 PM,42.8,39.2,87,30.36,9.0,Calm,Calm,-,0.01,Rain,Light Rain,0,2012-12-09 06:14:00
10:21 PM,42.8,39.2,87,30.36,9.0,Calm,Calm,-,0.01,Rain,Light Rain,0,2012-12-09 06:21:00
10:53 PM,42.1,39.0,89,30.36,8.0,Calm,Calm,-,0.01,Rain,Light Rain,0,2012-12-09 06:53:00
11:08 PM,42.8,39.2,87,30.37,9.0,Calm,Calm,-,0.01,,Overcast,0,2012-12-09 07:08:00
11:29 PM,42.8,39.2,87,30.38,9.0,SE,3.5,-,0.01,,Overcast,130,2012-12-09 07:29:00
11:38 PM,41.0,37.4,87,30.37,9.0,SSE,3.5,-,0.01,,Overcast,160,2012-12-09 07:38:00
11:53 PM,41.0,37.9,89,30.38,10.0,Calm,Calm,-,0.01,Rain,Light Rain,0,2012-12-09 07:53:00